Hayfield, Minnesota
Current Conditions -  °F | °C
As of 11:13 AM on Saturday 25 Oct 2014 (Local Time) from KTOB Reporting Station
Clear Clear  
Wind Chill: 57°   Ceiling: Unl
Heat Index: 57°   Visibility: 10mi
Dew Point: 36°   Wind: 16mph
Humidity: 44%   Direction: 320°NW
Pressure: 30.06"   Gusts: 22mph
Location:  43.89°N, 92.85°W
Report Text: KTOB 251613Z AUTO 32014G19KT 10SM CLR 14/02 A3006 RMK AO2
Loading
Personal Weather Stations






























Interactive Weather Map
Tropical Storm Tracking
New forecast layout! Learn more

10-Day Weather Forecast

Advertisements
Track Severe Weather on mobile